createdAt,value
2018-06-15T00:01:50.327Z,74.10
2018-06-15T00:04:18.472Z,71.90
2018-06-15T00:06:46.746Z,73.30
2018-06-15T00:09:14.922Z,74.50
2018-06-15T00:11:43.857Z,76.70
2018-06-15T00:14:13.157Z,76.10
2018-06-15T00:16:42.032Z,76.20
2018-06-15T00:19:10.154Z,76.30
2018-06-15T00:21:38.265Z,74.20
2018-06-15T00:24:06.648Z,75.30
2018-06-15T00:26:35.439Z,74.00
2018-06-15T00:29:03.562Z,74.20
2018-06-15T00:31:32.594Z,75.80
2018-06-15T00:34:00.731Z,75.80
2018-06-15T00:36:28.863Z,76.40
2018-06-15T00:38:58.447Z,73.90
2018-06-15T00:41:26.580Z,75.50
2018-06-15T00:43:55.445Z,75.30
2018-06-15T00:46:24.517Z,77.60
2018-06-15T00:48:52.656Z,76.90
2018-06-15T00:51:20.754Z,76.90
2018-06-15T00:53:48.871Z,76.40
2018-06-15T00:56:17.755Z,74.60
2018-06-15T00:58:46.651Z,74.30
2018-06-15T01:01:15.545Z,72.40
2018-06-15T01:03:44.423Z,74.80
2018-06-15T01:06:13.340Z,74.30
2018-06-15T01:08:41.447Z,77.40
2018-06-15T01:11:09.900Z,79.00
2018-06-15T01:13:38.771Z,79.90
2018-06-15T01:16:07.657Z,81.80
2018-06-15T01:18:36.802Z,78.70
2018-06-15T01:21:04.930Z,78.70
2018-06-15T01:23:33.844Z,81.50
2018-06-15T01:26:03.572Z,82.10
2018-06-15T01:28:31.704Z,82.10
2018-06-15T01:31:00.593Z,80.60
2018-06-15T01:33:29.480Z,81.00
2018-06-15T01:35:58.377Z,80.50
2018-06-15T01:38:27.259Z,82.40
2018-06-15T01:41:58.032Z,82.20
2018-06-15T01:44:26.152Z,81.50
2018-06-15T01:46:54.259Z,81.60
2018-06-15T01:49:23.139Z,82.30
2018-06-15T01:51:52.023Z,82.40
2018-06-15T01:54:21.172Z,80.50
2018-06-15T01:56:49.287Z,80.70
2018-06-15T01:59:18.394Z,82.30
2018-06-15T02:01:47.295Z,79.70
2018-06-15T02:04:16.264Z,82.00
2018-06-15T02:06:44.427Z,82.00
2018-06-15T02:09:12.586Z,80.80
2018-06-15T02:11:40.680Z,81.00
2018-06-15T02:14:08.778Z,83.00
2018-06-15T02:16:37.753Z,83.60
2018-06-15T02:19:05.919Z,83.60
2018-06-15T02:21:34.006Z,84.70
2018-06-15T02:24:02.908Z,87.30
2018-06-15T02:26:31.892Z,83.10
2018-06-15T02:29:00.775Z,83.10
2018-06-15T02:31:29.340Z,83.20
2018-06-15T02:33:57.763Z,83.10
2018-06-15T02:36:26.007Z,82.20
2018-06-15T02:38:54.110Z,82.20
2018-06-15T02:41:22.229Z,82.50
2018-06-15T02:43:50.335Z,84.20
2018-06-15T02:46:19.332Z,85.30
2018-06-15T02:48:48.223Z,85.30
2018-06-15T02:51:17.669Z,81.80
2018-06-15T02:53:45.839Z,81.80
2018-06-15T02:56:14.065Z,78.80
2018-06-15T02:58:42.176Z,79.10
2018-06-15T03:01:10.264Z,81.00
2018-06-15T03:03:38.376Z,83.20
2018-06-15T03:06:06.621Z,81.60
2018-06-15T03:08:34.737Z,81.50
2018-06-15T03:11:02.910Z,81.00
2018-06-15T03:13:31.022Z,81.40
2018-06-15T03:15:59.235Z,82.80
2018-06-15T03:18:27.875Z,81.20
2018-06-15T03:20:56.927Z,80.50
2018-06-15T03:23:25.026Z,82.70
2018-06-15T03:25:53.975Z,81.60
2018-06-15T03:28:22.088Z,81.50
2018-06-15T03:30:50.972Z,79.50
2018-06-15T03:33:19.835Z,79.40
2018-06-15T03:35:47.947Z,79.40
2018-06-15T03:38:17.081Z,84.90
2018-06-15T03:40:45.188Z,85.00
2018-06-15T03:43:13.322Z,85.00
2018-06-15T03:45:41.453Z,85.60
2018-06-15T03:48:10.333Z,86.60
2018-06-15T03:50:38.450Z,86.60
2018-06-15T03:53:06.569Z,86.00
2018-06-15T03:55:34.746Z,87.90
2018-06-15T03:58:02.855Z,84.90
2018-06-15T04:00:30.981Z,84.30
2018-06-15T04:02:59.088Z,83.60
2018-06-15T04:05:28.081Z,81.50
2018-06-15T04:07:56.958Z,81.30
2018-06-15T04:10:25.095Z,81.20
2018-06-15T04:12:53.238Z,81.70
2018-06-15T04:15:21.452Z,80.70
2018-06-15T04:17:49.571Z,79.00
2018-06-15T04:20:18.448Z,78.30
2018-06-15T04:22:47.401Z,76.30
2018-06-15T04:25:16.524Z,76.30
2018-06-15T04:27:44.638Z,75.90
2018-06-15T04:30:12.743Z,76.80
2018-06-15T04:32:40.850Z,77.80
2018-06-15T04:35:09.827Z,79.70
2018-06-15T04:37:37.980Z,79.60
2018-06-15T04:40:06.091Z,80.50
2018-06-15T04:42:35.283Z,83.30
2018-06-15T04:45:04.626Z,83.30
2018-06-15T04:47:33.493Z,74.90
2018-06-15T04:50:01.662Z,74.90
2018-06-15T04:52:30.556Z,74.30
2018-06-15T04:54:59.553Z,71.80
2018-06-15T04:57:28.437Z,70.90
2018-06-15T04:59:57.390Z,70.60
2018-06-15T05:02:25.508Z,70.30
2018-06-15T05:04:53.646Z,71.40
2018-06-15T05:07:21.757Z,72.40
2018-06-15T05:09:50.652Z,69.00
2018-06-15T05:12:18.768Z,68.50
2018-06-15T05:14:46.968Z,69.70
2018-06-15T05:17:15.826Z,67.60
2018-06-15T05:19:43.915Z,67.50
2018-06-15T05:22:12.740Z,67.20
2018-06-15T05:24:41.891Z,65.00
2018-06-15T05:27:10.005Z,65.00
2018-06-15T05:29:39.611Z,63.00
2018-06-15T05:32:07.708Z,63.00
2018-06-15T05:34:35.842Z,63.70
2018-06-15T05:37:03.960Z,63.10
2018-06-15T05:39:32.067Z,60.40
2018-06-15T05:42:00.177Z,61.40
2018-06-15T05:44:29.721Z,60.20
2018-06-15T05:46:57.908Z,60.20
2018-06-15T05:49:26.008Z,59.40
2018-06-15T05:51:54.138Z,58.60
2018-06-15T05:54:22.255Z,59.30
2018-06-15T05:56:52.559Z,57.90
2018-06-15T05:59:20.670Z,58.10
2018-06-15T06:01:50.024Z,57.20
2018-06-15T06:04:18.142Z,56.70
2018-06-15T06:06:46.301Z,56.90
2018-06-15T06:09:14.584Z,55.80
2018-06-15T06:11:42.683Z,55.80
2018-06-15T06:14:10.894Z,57.50
2018-06-15T06:16:39.011Z,57.60
2018-06-15T06:19:07.921Z,56.30
2018-06-15T06:21:36.816Z,58.40
2018-06-15T06:24:04.937Z,58.40
2018-06-15T06:26:34.052Z,56.30
2018-06-15T06:29:02.167Z,54.20
2018-06-15T06:31:30.346Z,55.30
2018-06-15T06:33:58.502Z,54.60
2018-06-15T06:36:27.880Z,54.00
2018-06-15T06:38:56.026Z,53.50
2018-06-15T06:41:24.154Z,53.70
2018-06-15T06:43:52.333Z,51.80
2018-06-15T06:46:20.395Z,52.40
2018-06-15T06:48:49.278Z,50.50
2018-06-15T06:51:18.155Z,50.40
2018-06-15T06:53:46.898Z,50.30
2018-06-15T06:56:15.108Z,47.70
2018-06-15T06:58:43.235Z,45.80
2018-06-15T07:01:11.351Z,47.20
2018-06-15T07:03:41.709Z,47.40
2018-06-15T07:06:10.941Z,45.10
2018-06-15T07:08:39.079Z,45.00
2018-06-15T07:11:07.206Z,44.90
2018-06-15T07:13:35.338Z,44.70
2018-06-15T07:16:03.583Z,45.10
2018-06-15T07:18:31.703Z,46.60
2018-06-15T07:21:00.054Z,43.30
2018-06-15T07:23:28.930Z,46.70
2018-06-15T07:26:01.084Z,46.80
2018-06-15T07:28:29.903Z,44.70
2018-06-15T07:30:59.104Z,43.50
2018-06-15T07:33:28.130Z,39.70
2018-06-15T07:35:56.498Z,39.70
2018-06-15T07:38:27.092Z,39.80
2018-06-15T07:40:56.880Z,39.20
2018-06-15T07:43:28.307Z,38.90
2018-06-15T07:45:57.443Z,38.00
2018-06-15T07:48:26.336Z,37.80
2018-06-15T07:50:55.241Z,37.00
2018-06-15T07:53:25.081Z,36.40
2018-06-15T07:55:53.202Z,36.00
2018-06-15T07:58:22.103Z,33.30
2018-06-15T08:00:50.345Z,32.20
2018-06-15T08:03:18.484Z,36.10
2018-06-15T08:05:48.637Z,34.20
2018-06-15T08:08:16.774Z,34.00
2018-06-15T08:10:44.890Z,29.50
2018-06-15T08:13:13.530Z,30.60
2018-06-15T08:15:42.687Z,30.50
2018-06-15T08:18:12.590Z,31.80
2018-06-15T08:20:40.706Z,27.50
2018-06-15T08:23:09.653Z,28.80
2018-06-15T08:25:37.868Z,27.70
2018-06-15T08:28:06.181Z,26.50
2018-06-15T08:30:34.315Z,26.80
2018-06-15T08:33:03.513Z,28.10
2018-06-15T08:35:33.687Z,28.40
2018-06-15T08:38:01.831Z,27.70
2018-06-15T08:40:29.960Z,29.50
2018-06-15T08:42:58.389Z,31.00
2018-06-15T08:45:28.396Z,30.90
2018-06-15T08:47:56.533Z,25.80
2018-06-15T08:50:26.079Z,28.00
2018-06-15T08:52:56.163Z,27.50
2018-06-15T08:55:25.104Z,27.10
2018-06-15T08:57:53.246Z,23.80
2018-06-15T09:00:22.709Z,24.40
2018-06-15T09:02:50.899Z,24.00
2018-06-15T09:05:21.754Z,24.80
2018-06-15T09:07:50.760Z,23.90
2018-06-15T09:10:20.210Z,23.70
2018-06-15T09:12:48.360Z,23.60
2018-06-15T09:15:16.556Z,23.40
2018-06-15T09:17:45.047Z,23.10
2018-06-15T09:20:13.738Z,21.30
2018-06-15T09:22:41.928Z,22.50
2018-06-15T09:25:10.773Z,22.50
2018-06-15T09:27:39.806Z,21.70
2018-06-15T09:30:08.740Z,23.40
2018-06-15T09:32:36.943Z,22.50
2018-06-15T09:35:05.741Z,23.90
2018-06-15T09:37:33.876Z,23.70
2018-06-15T09:40:02.016Z,20.80
2018-06-15T09:42:30.405Z,21.50
2018-06-15T09:44:59.548Z,21.00
2018-06-15T09:47:29.309Z,22.00
2018-06-15T09:49:57.423Z,22.80
2018-06-15T09:52:26.471Z,22.60
2018-06-15T09:54:57.385Z,21.60
2018-06-15T09:57:25.489Z,23.40
2018-06-15T09:59:56.106Z,22.60
2018-06-15T10:02:24.915Z,22.10
2018-06-15T10:04:54.917Z,21.00
2018-06-15T10:07:23.134Z,23.40
2018-06-15T10:09:53.192Z,22.90
2018-06-15T10:12:21.331Z,21.80
2018-06-15T10:14:50.570Z,22.20
2018-06-15T10:17:19.760Z,22.20
2018-06-15T10:19:47.875Z,22.80
2018-06-15T10:22:16.752Z,22.10
2018-06-15T10:24:46.711Z,21.60
2018-06-15T10:27:14.899Z,21.10
2018-06-15T10:29:43.017Z,21.30
2018-06-15T10:32:11.920Z,20.80
2018-06-15T10:34:42.495Z,19.00
2018-06-15T10:37:10.615Z,19.00
2018-06-15T10:39:39.778Z,20.80
2018-06-15T10:42:07.904Z,20.40
2018-06-15T10:44:36.057Z,20.30
2018-06-15T10:47:05.968Z,21.20
2018-06-15T10:49:34.078Z,20.90
2018-06-15T10:52:03.128Z,21.50
2018-06-15T10:54:33.716Z,19.40
2018-06-15T10:57:02.835Z,19.40
2018-06-15T10:59:30.969Z,19.00
2018-06-15T11:02:00.220Z,19.70
2018-06-15T11:04:28.346Z,20.30
2018-06-15T11:06:56.907Z,21.40
2018-06-15T11:09:25.862Z,20.40
2018-06-15T11:11:54.082Z,20.10
2018-06-15T11:14:22.745Z,20.20
2018-06-15T11:16:50.840Z,20.60
2018-06-15T11:19:19.001Z,20.00
2018-06-15T11:21:48.007Z,18.60
2018-06-15T11:24:16.142Z,18.60
2018-06-15T11:26:44.268Z,18.40
2018-06-15T11:29:13.314Z,18.20
2018-06-15T11:31:41.444Z,18.20
2018-06-15T11:34:09.571Z,20.50
2018-06-15T11:36:41.860Z,19.20
2018-06-15T11:39:10.803Z,19.30
2018-06-15T11:41:38.974Z,18.80
2018-06-15T11:44:07.957Z,19.60
2018-06-15T11:46:36.183Z,19.20
2018-06-15T11:49:06.781Z,18.80
2018-06-15T11:51:34.959Z,18.70
2018-06-15T11:54:04.005Z,17.50
2018-06-15T11:56:32.170Z,17.60
2018-06-15T11:59:01.943Z,17.30
2018-06-15T12:01:30.054Z,17.60
2018-06-15T12:03:58.606Z,16.50
2018-06-15T12:06:28.111Z,15.90
2018-06-15T12:08:56.891Z,17.00
2018-06-15T12:11:25.002Z,18.10
2018-06-15T12:13:54.478Z,19.30
2018-06-15T12:16:23.852Z,18.80
2018-06-15T12:18:51.951Z,17.60
2018-06-15T12:21:22.291Z,17.60
2018-06-15T12:23:50.409Z,16.80
2018-06-15T12:26:21.916Z,18.30
2018-06-15T12:28:51.766Z,18.30
2018-06-15T12:31:20.908Z,17.60
2018-06-15T12:33:49.717Z,16.30
2018-06-15T12:36:19.774Z,16.50
2018-06-15T12:38:47.956Z,16.10
2018-06-15T12:41:16.082Z,16.60
2018-06-15T12:43:46.472Z,16.80
2018-06-15T12:46:14.688Z,16.80
2018-06-15T12:48:44.222Z,17.80
2018-06-15T12:51:15.085Z,17.50
2018-06-15T12:53:44.434Z,17.70
2018-06-15T12:56:13.340Z,17.90
2018-06-15T12:58:42.076Z,17.50
2018-06-15T13:01:10.199Z,17.60
2018-06-15T13:03:38.651Z,15.80
2018-06-15T13:06:06.925Z,14.40
2018-06-15T13:08:37.596Z,16.30
2018-06-15T13:11:05.722Z,15.90
2018-06-15T13:13:35.956Z,16.80
2018-06-15T13:16:05.679Z,15.60
2018-06-15T13:18:34.583Z,15.80
2018-06-15T13:21:03.692Z,15.50
2018-06-15T13:23:32.809Z,15.40
2018-06-15T13:26:01.055Z,15.10
2018-06-15T13:28:30.097Z,14.60
2018-06-15T13:30:58.234Z,12.90
2018-06-15T13:33:26.337Z,10.30
2018-06-15T13:35:55.534Z,9.20
2018-06-15T13:38:23.696Z,8.80
2018-06-15T13:40:52.554Z,7.80
2018-06-15T13:43:20.660Z,7.10
2018-06-15T13:45:49.229Z,6.60
2018-06-15T13:48:17.335Z,5.30
2018-06-15T13:50:45.450Z,5.50
2018-06-15T13:53:13.621Z,5.60
2018-06-15T13:55:42.594Z,4.90
2018-06-15T13:58:10.956Z,4.80
2018-06-15T14:00:40.444Z,2.80
2018-06-15T14:03:08.548Z,3.30
2018-06-15T14:05:36.718Z,1.30
2018-06-15T14:08:04.848Z,1.70
2018-06-15T14:10:32.965Z,1.00
2018-06-15T14:13:01.314Z,1.00
2018-06-15T14:15:30.849Z,1.00
2018-06-15T14:17:59.023Z,1.00
2018-06-15T14:20:27.166Z,1.00
2018-06-15T14:22:56.130Z,1.00
2018-06-15T14:25:25.249Z,1.00
2018-06-15T14:27:53.364Z,1.00
2018-06-15T14:30:21.507Z,1.00
2018-06-15T14:32:51.311Z,1.00
2018-06-15T14:35:22.087Z,1.00
2018-06-15T14:37:51.346Z,1.00
2018-06-15T14:40:19.428Z,1.00
2018-06-15T14:42:49.663Z,1.00
2018-06-15T14:45:17.813Z,1.00
2018-06-15T14:47:46.726Z,1.00
2018-06-15T14:50:14.855Z,1.00
2018-06-15T14:52:44.518Z,1.00
2018-06-15T14:55:13.511Z,1.00
2018-06-15T14:57:41.605Z,1.00
2018-06-15T15:00:10.892Z,1.00
2018-06-15T15:02:39.019Z,1.00
2018-06-15T15:05:07.291Z,1.00
2018-06-15T15:07:35.495Z,1.00
2018-06-15T15:10:03.641Z,1.00
2018-06-15T15:12:31.762Z,1.00
2018-06-15T15:15:00.532Z,1.00
2018-06-15T15:17:29.418Z,1.00
2018-06-15T15:19:59.962Z,1.00
2018-06-15T15:22:28.083Z,1.20
2018-06-15T15:24:57.005Z,2.50
2018-06-15T15:27:25.119Z,1.50
2018-06-15T15:29:53.218Z,1.80
2018-06-15T15:32:21.730Z,1.00
2018-06-15T15:34:49.866Z,1.00
2018-06-15T15:37:18.713Z,1.00
2018-06-15T15:39:46.883Z,1.00
2018-06-15T15:42:15.009Z,1.00
2018-06-15T15:44:44.145Z,1.00
2018-06-15T15:47:13.004Z,1.00
2018-06-15T15:49:41.348Z,1.00
2018-06-15T15:52:10.139Z,1.00
2018-06-15T15:54:39.041Z,1.00
2018-06-15T15:57:07.913Z,1.00
2018-06-15T15:59:36.026Z,1.00
2018-06-15T16:02:04.153Z,1.00
2018-06-15T16:04:32.273Z,1.00
2018-06-15T16:07:00.410Z,1.00
2018-06-15T16:09:28.575Z,1.00
2018-06-15T16:11:56.676Z,1.00
2018-06-15T16:14:25.519Z,1.00
2018-06-15T16:16:54.846Z,1.00
2018-06-15T16:19:22.999Z,1.00
2018-06-15T16:21:51.119Z,1.00
2018-06-15T16:24:19.211Z,1.00
2018-06-15T16:26:47.337Z,1.00
2018-06-15T16:29:15.438Z,1.00
2018-06-15T16:31:43.543Z,1.00
2018-06-15T16:34:11.738Z,1.00
2018-06-15T16:36:39.853Z,1.00
2018-06-15T16:39:09.540Z,1.00
2018-06-15T16:41:38.720Z,1.00
2018-06-15T16:44:06.816Z,1.00
2018-06-15T16:46:35.869Z,1.00
2018-06-15T16:49:03.990Z,1.00
2018-06-15T16:51:32.888Z,1.00
2018-06-15T16:54:00.996Z,1.00
2018-06-15T16:56:29.103Z,1.00
2018-06-15T16:58:57.204Z,1.00
2018-06-15T17:01:25.933Z,1.00
2018-06-15T17:03:54.038Z,1.00
2018-06-15T17:06:22.199Z,1.00
2018-06-15T17:08:51.222Z,1.00
2018-06-15T17:11:19.321Z,1.00
2018-06-15T17:13:47.426Z,1.00
2018-06-15T17:16:15.550Z,1.00
2018-06-15T17:18:44.417Z,1.00
2018-06-15T17:21:12.539Z,1.00
2018-06-15T17:23:40.650Z,1.00
2018-06-15T17:26:08.816Z,1.00
2018-06-15T17:28:36.929Z,1.00
2018-06-15T17:31:05.054Z,1.00
2018-06-15T17:33:33.178Z,1.00
2018-06-15T17:36:02.147Z,1.00
2018-06-15T17:38:30.290Z,1.00
2018-06-15T17:40:58.468Z,1.00
2018-06-15T17:43:26.571Z,1.00
2018-06-15T17:45:55.435Z,1.00
2018-06-15T17:48:23.556Z,1.00
2018-06-15T17:50:51.692Z,2.40
2018-06-15T17:53:19.790Z,5.00
2018-06-15T17:55:49.372Z,7.50
2018-06-15T17:58:17.474Z,7.50
2018-06-15T18:00:47.311Z,8.20
2018-06-15T18:03:16.172Z,8.70
2018-06-15T18:05:45.848Z,9.80
2018-06-15T18:08:13.933Z,9.70
2018-06-15T18:10:45.357Z,9.60
2018-06-15T18:13:13.450Z,11.90
2018-06-15T18:15:42.556Z,12.40
2018-06-15T18:18:12.891Z,12.50
2018-06-15T18:20:41.838Z,13.50
2018-06-15T18:23:10.928Z,13.50
2018-06-15T18:25:41.638Z,13.30
2018-06-15T18:28:11.085Z,15.10
2018-06-15T18:30:40.026Z,14.70
2018-06-15T18:33:09.115Z,15.00
2018-06-15T18:35:37.998Z,21.50
2018-06-15T18:38:06.880Z,22.70
2018-06-15T18:40:35.755Z,24.10
2018-06-15T18:43:03.905Z,24.00
2018-06-15T18:45:33.598Z,25.60
2018-06-15T18:48:01.741Z,27.40
2018-06-15T18:50:30.634Z,29.80
2018-06-15T18:52:58.739Z,29.30
2018-06-15T18:55:27.289Z,30.40
2018-06-15T18:57:56.146Z,34.40
2018-06-15T19:00:24.275Z,33.80
2018-06-15T19:02:52.416Z,34.70
2018-06-15T19:05:21.408Z,36.60
2018-06-15T19:07:50.317Z,37.80
2018-06-15T19:10:19.610Z,37.20
2018-06-15T19:12:48.514Z,41.40
2018-06-15T19:15:18.426Z,42.40
2018-06-15T19:17:46.546Z,41.80
2018-06-15T19:20:14.688Z,42.90
2018-06-15T19:22:43.491Z,42.50
2018-06-15T19:25:12.736Z,42.00
2018-06-15T19:27:41.660Z,44.80
2018-06-15T19:30:09.765Z,44.80
2018-06-15T19:32:37.874Z,45.50
2018-06-15T19:35:09.169Z,46.50
2018-06-15T19:37:37.296Z,46.50
2018-06-15T19:40:09.094Z,47.90
2018-06-15T19:42:37.248Z,47.80
2018-06-15T19:45:05.514Z,49.40
2018-06-15T19:47:34.396Z,48.60
2018-06-15T19:50:03.356Z,49.00
2018-06-15T19:52:31.748Z,48.70
2018-06-15T19:54:59.857Z,49.70
2018-06-15T19:57:27.984Z,50.20
2018-06-15T19:59:57.130Z,51.30
2018-06-15T20:02:27.448Z,51.30
2018-06-15T20:04:56.490Z,53.40
2018-06-15T20:07:24.666Z,53.40
2018-06-15T20:09:52.781Z,53.40
2018-06-15T20:12:21.663Z,54.80
2018-06-15T20:14:50.569Z,56.30
2018-06-15T20:17:19.675Z,55.80
2018-06-15T20:19:48.574Z,58.20
2018-06-15T20:22:17.110Z,58.00
2018-06-15T20:24:45.300Z,59.20
2018-06-15T20:27:13.411Z,58.40
2018-06-15T20:29:41.539Z,59.00
2018-06-15T20:32:09.696Z,58.40
2018-06-15T20:34:37.848Z,59.80
2018-06-15T20:37:06.275Z,58.50
2018-06-15T20:39:35.452Z,60.20
2018-06-15T20:42:04.307Z,60.20
2018-06-15T20:44:32.428Z,60.40
2018-06-15T20:47:02.081Z,61.80
2018-06-15T20:49:30.211Z,61.10
2018-06-15T20:51:59.113Z,62.30
2018-06-15T20:54:28.014Z,63.50
2018-06-15T20:56:56.194Z,63.50
2018-06-15T20:59:24.340Z,62.20
2018-06-15T21:01:52.459Z,63.00
2018-06-15T21:04:20.573Z,64.20
2018-06-15T21:06:48.694Z,64.00
2018-06-15T21:09:16.816Z,63.20
2018-06-15T21:11:47.563Z,63.80
2018-06-15T21:14:15.667Z,63.00
2018-06-15T21:16:45.565Z,64.60
2018-06-15T21:19:14.471Z,64.60
2018-06-15T21:21:45.178Z,64.40
2018-06-15T21:24:13.351Z,63.70
2018-06-15T21:26:42.330Z,62.50
2018-06-15T21:29:12.165Z,62.00
2018-06-15T21:31:41.254Z,62.80
2018-06-15T21:34:10.152Z,64.20
2018-06-15T21:36:39.260Z,65.20
2018-06-15T21:39:07.373Z,64.70
2018-06-15T21:41:35.882Z,65.00
2018-06-15T21:44:04.013Z,66.40
2018-06-15T21:46:33.153Z,67.80
2018-06-15T21:49:01.271Z,66.70
2018-06-15T21:51:30.192Z,67.80
2018-06-15T21:53:59.086Z,66.30
2018-06-15T21:56:28.089Z,66.60
2018-06-15T21:58:56.959Z,67.10
2018-06-15T22:01:25.689Z,67.10
2018-06-15T22:03:54.594Z,67.40
2018-06-15T22:06:24.290Z,67.30
2018-06-15T22:08:52.407Z,66.60
2018-06-15T22:11:20.730Z,68.50
2018-06-15T22:13:49.807Z,68.30
2018-06-15T22:16:19.625Z,69.00
2018-06-15T22:18:47.818Z,70.90
2018-06-15T22:21:16.628Z,68.80
2018-06-15T22:23:45.508Z,70.50
2018-06-15T22:26:15.488Z,72.30
2018-06-15T22:28:43.615Z,72.20
2018-06-15T22:31:12.591Z,72.30
2018-06-15T22:33:41.587Z,71.20
2018-06-15T22:36:11.200Z,70.30
2018-06-15T22:38:39.323Z,70.40
2018-06-15T22:41:07.438Z,69.90
2018-06-15T22:43:36.326Z,74.00
2018-06-15T22:46:05.319Z,74.40
2018-06-15T22:48:34.206Z,73.10
2018-06-15T22:51:03.961Z,74.20
2018-06-15T22:53:32.184Z,73.70
2018-06-15T22:56:00.316Z,72.60
2018-06-15T22:58:28.446Z,71.50
2018-06-15T23:00:57.338Z,75.90
2018-06-15T23:03:26.492Z,75.90
2018-06-15T23:05:54.594Z,75.50
2018-06-15T23:08:22.718Z,77.10
2018-06-15T23:10:50.847Z,78.60
2018-06-15T23:13:20.442Z,77.20
2018-06-15T23:15:48.601Z,77.10
2018-06-15T23:18:16.940Z,78.00
2018-06-15T23:20:45.836Z,76.30
2018-06-15T23:23:13.982Z,72.90
2018-06-15T23:25:42.873Z,76.20
2018-06-15T23:28:11.242Z,76.20
2018-06-15T23:30:40.141Z,78.40
2018-06-15T23:33:09.033Z,79.90
2018-06-15T23:35:38.011Z,79.10
2018-06-15T23:38:06.142Z,79.10
2018-06-15T23:40:34.258Z,79.90
2018-06-15T23:43:02.520Z,80.30
2018-06-15T23:45:30.696Z,78.60
2018-06-15T23:47:58.820Z,76.70
2018-06-15T23:50:26.931Z,78.90
2018-06-15T23:52:55.054Z,78.20
2018-06-15T23:55:23.190Z,76.60
2018-06-15T23:57:51.410Z,76.40
